Time;durP1;ratioP1;P1;durP2;ratioP2;P2;SDS_P1;SDS_P2;PMS_P1;PMS_P2;Temp;Humidity;BMP_temperature;BMP_pressure;BME280_temperature;BME280_humidity;BME280_pressure;Samples;Min_cycle;Max_cycle;Signal;HPM_P1;HPM_P2
2023/12/29 00:01:59;;;;;;;4.07;2.40;;;;;;;11.24;nan;99704.91;4982784;28;20288;-79
2023/12/29 00:04:27;;;;;;;4.32;2.33;;;;;;;11.28;nan;99706.38;4981611;28;20233;-79
2023/12/29 00:06:53;;;;;;;2.97;2.67;;;;;;;11.32;nan;99703.56;4982173;28;21164;-79
2023/12/29 00:09:21;;;;;;;2.30;2.10;;;;;;;11.37;nan;99693.56;4981721;28;20226;-79
2023/12/29 00:11:47;;;;;;;2.50;2.10;;;;;;;11.41;nan;99693.25;4983868;28;20219;-81
2023/12/29 00:14:13;;;;;;;2.88;2.40;;;;;;;11.46;nan;99695.59;4984928;28;20202;-80
2023/12/29 00:16:38;;;;;;;2.50;2.30;;;;;;;11.53;nan;99699.53;4984245;28;20552;-79
2023/12/29 00:19:04;;;;;;;2.40;2.17;;;;;;;11.57;nan;99695.72;4980769;28;20215;-78
2023/12/29 00:21:29;;;;;;;2.90;2.60;;;;;;;11.60;nan;99690.25;4982827;28;20278;-79
2023/12/29 00:23:57;;;;;;;2.90;2.70;;;;;;;11.64;nan;99704.06;4980793;28;20230;-79
2023/12/29 00:26:23;;;;;;;2.80;2.60;;;;;;;11.68;nan;99709.00;4984366;28;20187;-79
2023/12/29 00:28:54;;;;;;;3.50;1.75;;;;;;;11.73;nan;99712.19;4983719;28;20212;-80
2023/12/29 00:31:20;;;;;;;2.53;2.33;;;;;;;11.79;nan;99699.56;4985044;28;20192;-79
2023/12/29 00:33:45;;;;;;;2.57;2.37;;;;;;;11.79;nan;99702.19;4980970;28;20218;-79
2023/12/29 00:36:18;;;;;;;3.43;2.00;;;;;;;11.79;nan;99700.41;4968142;28;20378;-81
2023/12/29 00:38:43;;;;;;;3.65;3.13;;;;;;;11.81;nan;99698.50;4975848;28;20602;-80
2023/12/29 00:41:09;;;;;;;3.30;2.73;;;;;;;11.81;nan;99705.56;4982865;28;20215;-79
2023/12/29 00:43:35;;;;;;;3.33;2.33;;;;;;;11.78;nan;99705.78;4968693;28;20200;-80
2023/12/29 00:46:08;;;;;;;2.43;2.20;;;;;;;11.78;nan;99711.03;4969527;28;20560;-80
2023/12/29 00:48:34;;;;;;;3.33;2.45;;;;;;;11.73;nan;99709.56;4983466;28;21055;-79
2023/12/29 00:51:03;;;;;;;3.60;3.00;;;;;;;11.75;nan;99706.81;4982065;28;20207;-80
2023/12/29 00:53:31;;;;;;;4.07;3.22;;;;;;;11.72;nan;99707.88;4968499;28;20455;-79
2023/12/29 00:55:57;;;;;;;3.67;2.53;;;;;;;11.70;nan;99701.88;4984083;28;20616;-80
2023/12/29 00:58:23;;;;;;;3.95;2.20;;;;;;;11.69;nan;99709.84;4982212;28;20208;-79
2023/12/29 01:00:48;;;;;;;3.60;2.90;;;;;;;11.66;nan;99707.44;4968425;28;20207;-79
2023/12/29 01:03:14;;;;;;;3.23;2.93;;;;;;;11.63;nan;99705.84;4967046;28;20620;-79
2023/12/29 01:05:41;;;;;;;4.72;2.63;;;;;;;11.59;nan;99716.69;4981099;28;20727;-79
2023/12/29 01:08:07;;;;;;;3.33;3.00;;;;;;;11.56;nan;99720.38;4978957;28;20424;-79
2023/12/29 01:10:32;;;;;;;3.67;3.13;;;;;;;11.54;nan;99708.25;4982323;28;20202;-80
2023/12/29 01:12:58;;;;;;;2.73;2.33;;;;;;;11.49;nan;99711.19;4966883;28;20742;-80
2023/12/29 01:15:23;;;;;;;2.83;2.50;;;;;;;11.48;nan;99709.50;4966347;28;20293;-79
2023/12/29 01:17:48;;;;;;;3.10;2.50;;;;;;;11.41;nan;99716.94;4967717;28;20204;-79
2023/12/29 01:20:14;;;;;;;4.23;2.80;;;;;;;11.42;nan;99715.13;4984200;28;20634;-79
2023/12/29 01:22:39;;;;;;;2.80;2.60;;;;;;;11.41;nan;99706.41;4980800;28;20204;-79
2023/12/29 01:25:05;;;;;;;3.30;2.77;;;;;;;11.39;nan;99695.16;4966846;28;20215;-81
2023/12/29 01:27:31;;;;;;;3.73;3.00;;;;;;;11.39;nan;99707.47;4963511;28;20203;-80
2023/12/29 01:29:56;;;;;;;3.30;2.63;;;;;;;11.39;nan;99704.81;4981855;28;20976;-80
2023/12/29 01:32:22;;;;;;;3.80;2.80;;;;;;;11.37;nan;99701.44;4970740;28;20335;-79
2023/12/29 01:34:48;;;;;;;3.27;2.97;;;;;;;11.37;nan;99704.94;4985774;28;20254;-79
2023/12/29 01:37:13;;;;;;;5.17;2.97;;;;;;;11.33;nan;99713.13;4972705;28;20199;-79
2023/12/29 01:39:42;;;;;;;3.30;2.70;;;;;;;11.31;nan;99707.94;5008460;23;20601;-81
2023/12/29 01:42:07;;;;;;;4.90;3.80;;;;;;;11.28;nan;99713.41;4955315;28;20393;-80
2023/12/29 01:44:34;;;;;;;5.47;3.90;;;;;;;11.24;nan;99704.91;4983774;28;20280;-82
2023/12/29 01:47:01;;;;;;;3.93;3.40;;;;;;;11.21;nan;99705.09;4989970;28;20271;-80
2023/12/29 01:49:27;;;;;;;3.38;2.97;;;;;;;11.19;nan;99701.72;4993236;28;20229;-80
2023/12/29 01:51:56;;;;;;;4.05;2.70;;;;;;;11.17;nan;99700.13;4977416;28;20675;-82
2023/12/29 01:54:24;;;;;;;3.95;3.50;;;;;;;11.13;nan;99704.75;4976727;28;20230;-81
2023/12/29 01:56:51;;;;;;;6.20;3.20;;;;;;;11.07;nan;99698.09;4991396;28;20684;-81
2023/12/29 01:59:18;;;;;;;4.13;3.17;;;;;;;11.03;nan;99691.34;4974300;28;20213;-82
2023/12/29 02:01:45;;;;;;;4.65;2.80;;;;;;;11.02;nan;99710.69;4975716;28;20437;-82
2023/12/29 02:04:12;;;;;;;5.88;3.72;;;;;;;11.00;nan;99709.94;4976296;28;20258;-82
2023/12/29 02:06:39;;;;;;;2.47;2.20;;;;;;;10.98;nan;99697.84;4976295;28;20226;-82
2023/12/29 02:09:05;;;;;;;3.85;3.17;;;;;;;10.99;nan;99699.50;4992943;28;20226;-80
2023/12/29 02:11:31;;;;;;;3.50;3.20;;;;;;;10.98;nan;99690.78;4975769;28;20199;-82
2023/12/29 02:13:58;;;;;;;6.93;2.80;;;;;;;10.99;nan;99700.38;5002170;28;20446;-81
2023/12/29 02:16:34;;;;;;;3.67;3.13;;;;;;;10.99;nan;99683.75;4985276;28;20206;-81
2023/12/29 02:19:04;;;;;;;3.70;3.33;;;;;;;11.01;nan;99685.31;4977609;28;20207;-81
2023/12/29 02:21:29;;;;;;;3.55;2.75;;;;;;;10.99;nan;99692.50;4991478;28;20730;-82
2023/12/29 02:23:55;;;;;;;4.60;3.08;;;;;;;10.98;nan;99693.41;4975177;28;20278;-83
2023/12/29 02:26:28;;;;;;;3.53;3.13;;;;;;;10.95;nan;99688.34;4993773;28;20322;-81
2023/12/29 02:28:59;;;;;;;3.30;3.00;;;;;;;10.95;nan;99675.22;4975514;28;20540;-82
2023/12/29 02:31:30;;;;;;;5.43;3.08;;;;;;;10.95;nan;99669.97;4992141;28;20219;-81
2023/12/29 02:33:56;;;;;;;5.15;3.45;;;;;;;10.96;nan;99674.25;4975586;28;20241;-80
2023/12/29 02:36:23;;;;;;;5.38;3.97;;;;;;;10.98;nan;99666.28;4993005;28;20400;-81
2023/12/29 02:38:49;;;;;;;4.10;3.50;;;;;;;10.98;nan;99666.28;4968607;28;20841;-81
2023/12/29 02:41:15;;;;;;;5.53;3.80;;;;;;;10.99;nan;99662.72;4974268;28;20203;-82
2023/12/29 02:43:40;;;;;;;3.80;3.13;;;;;;;10.95;nan;99658.59;4972481;28;20195;-82
2023/12/29 02:46:05;;;;;;;3.33;3.03;;;;;;;10.92;nan;99656.19;4970644;28;20219;-82
2023/12/29 02:48:31;;;;;;;5.10;3.50;;;;;;;10.94;nan;99667.44;4955110;28;20307;-82
2023/12/29 02:50:57;;;;;;;3.10;2.80;;;;;;;10.93;nan;99663.13;4957537;28;20745;-82
2023/12/29 02:53:22;;;;;;;6.27;4.20;;;;;;;10.94;nan;99662.19;4956396;28;20275;-82
2023/12/29 02:55:47;;;;;;;4.33;3.47;;;;;;;10.95;nan;99664.72;4973684;28;20591;-83
2023/12/29 02:58:13;;;;;;;5.10;3.10;;;;;;;10.93;nan;99660.50;4972398;28;20692;-82
2023/12/29 03:00:38;;;;;;;5.77;3.80;;;;;;;10.93;nan;99668.38;4976519;28;20227;-82
2023/12/29 03:03:04;;;;;;;4.70;4.10;;;;;;;10.95;nan;99667.34;4956042;28;20200;-81
2023/12/29 03:05:29;;;;;;;5.00;4.47;;;;;;;10.95;nan;99662.06;4972698;28;20207;-82
2023/12/29 03:07:55;;;;;;;4.30;3.43;;;;;;;10.96;nan;99657.66;4958315;28;20192;-81
2023/12/29 03:10:20;;;;;;;6.27;4.00;;;;;;;10.95;nan;99641.06;4977105;28;20207;-81
2023/12/29 03:12:45;;;;;;;4.10;3.70;;;;;;;10.94;nan;99628.03;4977439;28;20200;-81
2023/12/29 03:15:11;;;;;;;3.40;3.10;;;;;;;10.94;nan;99649.88;4960457;28;20196;-82
2023/12/29 03:17:36;;;;;;;4.80;3.93;;;;;;;10.93;nan;99644.72;4975431;28;20204;-80
2023/12/29 03:20:02;;;;;;;3.07;2.77;;;;;;;10.91;nan;99636.09;4977513;28;20464;-81
2023/12/29 03:22:28;;;;;;;3.70;3.35;;;;;;;10.89;nan;99638.81;4957915;28;20206;-83
2023/12/29 03:24:53;;;;;;;5.40;3.43;;;;;;;10.87;nan;99642.50;4977914;28;20215;-81
2023/12/29 03:27:19;;;;;;;4.13;3.73;;;;;;;10.86;nan;99652.16;4958392;28;20202;-82
2023/12/29 03:29:44;;;;;;;3.90;3.50;;;;;;;10.85;nan;99646.06;4957912;28;20234;-81
2023/12/29 03:32:10;;;;;;;8.60;4.40;;;;;;;10.85;nan;99634.69;4959233;28;20689;-82
2023/12/29 03:34:35;;;;;;;3.90;2.80;;;;;;;10.90;nan;99639.66;4961347;28;20196;-82
2023/12/29 03:37:01;;;;;;;4.90;4.10;;;;;;;10.88;nan;99644.16;4976124;28;20207;-82
2023/12/29 03:39:26;;;;;;;4.33;3.93;;;;;;;10.94;nan;99649.06;4958285;28;20235;-83
2023/12/29 03:41:51;;;;;;;3.60;3.03;;;;;;;10.95;nan;99656.81;4978928;28;20195;-81
2023/12/29 03:44:17;;;;;;;4.33;3.30;;;;;;;10.94;nan;99649.06;4960977;28;20679;-81
2023/12/29 03:46:43;;;;;;;5.63;3.20;;;;;;;10.94;nan;99646.44;4958033;28;20208;-82
2023/12/29 03:49:09;;;;;;;5.47;3.40;;;;;;;10.94;nan;99628.88;4960954;28;20228;-82
2023/12/29 03:51:34;;;;;;;4.53;2.90;;;;;;;10.92;nan;99635.16;4958366;28;20552;-82
2023/12/29 03:54:00;;;;;;;5.20;3.67;;;;;;;10.89;nan;99636.19;4978226;28;20204;-81
2023/12/29 03:56:26;;;;;;;6.28;3.20;;;;;;;10.91;nan;99638.72;4976658;28;20200;-82
2023/12/29 03:58:51;;;;;;;3.80;3.10;;;;;;;10.91;nan;99643.97;4959529;28;20553;-83
2023/12/29 04:01:17;;;;;;;4.33;3.80;;;;;;;10.90;nan;99631.78;4956405;28;20227;-82
2023/12/29 04:03:43;;;;;;;3.70;3.03;;;;;;;10.91;nan;99625.56;4956109;28;20686;-81
2023/12/29 04:06:09;;;;;;;4.90;3.00;;;;;;;10.90;nan;99621.28;4976803;28;20766;-84
2023/12/29 04:08:35;;;;;;;2.90;2.67;;;;;;;10.88;nan;99626.63;4957190;28;20458;-82
2023/12/29 04:11:00;;;;;;;4.00;3.03;;;;;;;10.81;nan;99620.94;4976761;28;20517;-81
2023/12/29 04:13:26;;;;;;;4.57;4.10;;;;;;;10.83;nan;99636.59;4957386;28;20925;-82
2023/12/29 04:15:51;;;;;;;4.80;3.43;;;;;;;10.83;nan;99636.59;4964074;28;20458;-83
2023/12/29 04:18:18;;;;;;;3.80;3.27;;;;;;;10.82;nan;99634.91;4977271;28;20211;-83
2023/12/29 04:20:43;;;;;;;3.15;2.50;;;;;;;10.78;nan;99629.00;4978461;28;20220;-81
2023/12/29 04:23:12;;;;;;;2.90;2.60;;;;;;;10.78;nan;99639.53;4977588;28;20214;-83
2023/12/29 04:25:37;;;;;;;6.82;3.38;;;;;;;10.76;nan;99644.03;4979054;28;20779;-81
2023/12/29 04:28:04;;;;;;;6.28;2.47;;;;;;;10.76;nan;99636.13;4976249;28;20204;-82
2023/12/29 04:30:30;;;;;;;4.40;3.27;;;;;;;10.78;nan;99628.16;4984421;28;20667;-82
2023/12/29 04:32:55;;;;;;;2.50;2.20;;;;;;;10.77;nan;99643.06;4974637;28;20206;-81
2023/12/29 04:35:21;;;;;;;4.20;2.70;;;;;;;10.79;nan;99635.09;4991321;28;20295;-80
2023/12/29 04:37:47;;;;;;;2.73;2.50;;;;;;;10.80;nan;99636.78;4988792;28;20187;-81
2023/12/29 04:40:13;;;;;;;3.97;2.80;;;;;;;10.81;nan;99636.69;4993098;28;20496;-81
2023/12/29 04:42:38;;;;;;;2.20;1.80;;;;;;;10.84;nan;99638.28;4975607;28;20253;-81
2023/12/29 04:45:05;;;;;;;2.70;2.37;;;;;;;10.83;nan;99620.84;4993835;28;20527;-81
2023/12/29 04:47:30;;;;;;;2.13;1.85;;;;;;;10.83;nan;99624.31;4993659;28;20226;-81
2023/12/29 04:49:56;;;;;;;2.50;2.20;;;;;;;10.89;nan;99624.84;4976051;28;20211;-81
2023/12/29 04:52:21;;;;;;;4.33;2.97;;;;;;;10.90;nan;99622.09;4992570;28;20199;-81
2023/12/29 04:54:47;;;;;;;10.43;2.20;;;;;;;10.90;nan;99626.53;4990518;28;20683;-81
2023/12/29 04:57:12;;;;;;;4.20;2.43;;;;;;;10.90;nan;99618.63;4992078;28;20214;-81
2023/12/29 04:59:37;;;;;;;3.70;2.20;;;;;;;10.89;nan;99614.34;4990525;28;20699;-81
2023/12/29 05:02:03;;;;;;;2.70;2.50;;;;;;;10.89;nan;99624.84;4991154;28;20246;-81
2023/12/29 05:04:28;;;;;;;2.80;2.10;;;;;;;10.87;nan;99632.81;4988585;28;20743;-81
2023/12/29 05:06:54;;;;;;;2.57;2.27;;;;;;;10.87;nan;99635.44;4993600;28;20209;-82
2023/12/29 05:09:19;;;;;;;3.30;2.73;;;;;;;10.88;nan;99644.16;5011021;28;20479;-81
2023/12/29 05:11:45;;;;;;;3.10;2.80;;;;;;;10.87;nan;99629.34;5001075;28;20203;-81
2023/12/29 05:14:14;;;;;;;4.70;3.40;;;;;;;10.82;nan;99627.84;4994461;28;20199;-84
2023/12/29 05:16:41;;;;;;;2.53;2.17;;;;;;;10.80;nan;99621.88;4975779;28;20454;-81
2023/12/29 05:19:06;;;;;;;2.75;2.55;;;;;;;10.78;nan;99626.38;4993069;28;20695;-81
2023/12/29 05:21:32;;;;;;;3.20;2.43;;;;;;;10.78;nan;99623.75;4992474;28;20187;-82
2023/12/29 05:23:57;;;;;;;3.43;2.53;;;;;;;10.78;nan;99623.75;4990811;28;23309;-80
2023/12/29 05:26:23;;;;;;;2.33;1.90;;;;;;;10.78;nan;99622.91;4992019;28;20643;-81
2023/12/29 05:28:48;;;;;;;3.10;2.40;;;;;;;10.80;nan;99626.25;4992364;28;20234;-82
2023/12/29 05:31:13;;;;;;;2.77;2.00;;;;;;;10.80;nan;99627.13;4975919;28;20214;-80
2023/12/29 05:33:39;;;;;;;3.47;2.00;;;;;;;10.82;nan;99619.13;4975807;28;20200;-82
2023/12/29 05:36:09;;;;;;;2.97;2.13;;;;;;;10.82;nan;99619.97;4994627;28;20823;-80
2023/12/29 05:38:35;;;;;;;1.95;1.85;;;;;;;10.84;nan;99612.00;4994234;28;20218;-82
2023/12/29 05:41:03;;;;;;;3.53;2.20;;;;;;;10.88;nan;99615.25;4989915;28;20589;-80
2023/12/29 05:43:28;;;;;;;2.35;1.95;;;;;;;10.87;nan;99621.47;4991521;28;21132;-82
2023/12/29 05:45:54;;;;;;;3.13;2.10;;;;;;;10.84;nan;99622.50;4990635;28;20207;-82
2023/12/29 05:48:19;;;;;;;3.50;2.20;;;;;;;10.88;nan;99623.16;4990275;28;20598;-82
2023/12/29 05:50:44;;;;;;;3.00;2.20;;;;;;;10.92;nan;99630.75;4991313;28;20480;-80
2023/12/29 05:53:10;;;;;;;2.57;1.60;;;;;;;10.96;nan;99615.59;4990486;28;20191;-81
2023/12/29 05:55:36;;;;;;;1.97;1.73;;;;;;;10.98;nan;99619.81;4990167;28;20192;-82
2023/12/29 05:58:01;;;;;;;2.30;2.00;;;;;;;11.04;nan;99623.84;4989373;28;20480;-80
2023/12/29 06:00:27;;;;;;;2.37;2.10;;;;;;;11.07;nan;99626.25;4988411;28;20199;-81
2023/12/29 06:02:52;;;;;;;3.00;2.00;;;;;;;11.09;nan;99621.75;4988039;28;20199;-81
2023/12/29 06:05:17;;;;;;;2.97;2.17;;;;;;;11.11;nan;99622.50;4990699;28;20231;-81
2023/12/29 06:07:43;;;;;;;2.67;2.40;;;;;;;11.18;nan;99626.41;4991645;28;20441;-80
2023/12/29 06:10:09;;;;;;;2.17;1.97;;;;;;;11.23;nan;99634.00;4990291;28;20477;-82
2023/12/29 06:12:34;;;;;;;1.75;1.63;;;;;;;11.22;nan;99630.53;4990657;28;20337;-81
2023/12/29 06:15:00;;;;;;;2.13;1.90;;;;;;;11.28;nan;99635.38;4987692;28;20919;-80
2023/12/29 06:17:26;;;;;;;2.53;2.23;;;;;;;11.32;nan;99630.78;4988430;28;20202;-81
2023/12/29 06:19:51;;;;;;;3.10;2.00;;;;;;;11.36;nan;99621.72;4991786;28;21740;-82
2023/12/29 06:22:16;;;;;;;2.30;1.83;;;;;;;11.38;nan;99619.84;4985352;28;20195;-82
2023/12/29 06:24:42;;;;;;;2.87;2.30;;;;;;;11.41;nan;99634.56;4988704;28;20265;-80
2023/12/29 06:27:08;;;;;;;2.53;2.33;;;;;;;11.40;nan;99633.72;4989617;28;20198;-80
2023/12/29 06:29:34;;;;;;;2.53;2.33;;;;;;;11.40;nan;99630.25;4993146;28;20372;-82
2023/12/29 06:31:59;;;;;;;2.17;1.90;;;;;;;11.35;nan;99627.94;4993556;28;20297;-80
2023/12/29 06:34:25;;;;;;;4.73;2.40;;;;;;;11.36;nan;99636.66;4995485;28;20703;-80
2023/12/29 06:36:51;;;;;;;3.23;2.40;;;;;;;11.33;nan;99639.50;4996636;28;20331;-83
2023/12/29 06:39:17;;;;;;;3.03;2.33;;;;;;;11.30;nan;99627.38;4993695;28;20469;-80
2023/12/29 06:41:42;;;;;;;2.10;1.90;;;;;;;11.28;nan;99634.53;4972531;28;20452;-80
2023/12/29 06:44:07;;;;;;;3.23;2.27;;;;;;;11.25;nan;99638.19;4987939;28;20203;-82
2023/12/29 06:46:33;;;;;;;2.77;2.23;;;;;;;11.23;nan;99634.84;4989636;28;20194;-79
2023/12/29 06:48:58;;;;;;;5.83;2.20;;;;;;;11.24;nan;99635.69;4988544;28;20222;-82
2023/12/29 06:51:24;;;;;;;2.93;2.00;;;;;;;11.24;nan;99633.91;4986647;28;21237;-80
2023/12/29 06:53:49;;;;;;;2.60;2.20;;;;;;;11.24;nan;99628.63;4987238;28;20199;-82
2023/12/29 06:56:15;;;;;;;3.40;2.17;;;;;;;11.25;nan;99622.44;4989778;28;20195;-81
2023/12/29 06:58:41;;;;;;;2.03;1.87;;;;;;;11.22;nan;99627.06;4989905;28;20509;-80
2023/12/29 07:01:07;;;;;;;1.90;1.53;;;;;;;11.20;nan;99626.31;4989969;28;20458;-81
2023/12/29 07:03:33;;;;;;;3.37;2.30;;;;;;;11.17;nan;99622.09;4990248;28;20454;-81
2023/12/29 07:06:01;;;;;;;2.93;2.33;;;;;;;11.14;nan;99630.19;4991264;28;20288;-81
2023/12/29 07:08:26;;;;;;;4.88;2.55;;;;;;;11.17;nan;99640.50;4988847;28;20207;-82
2023/12/29 07:10:52;;;;;;;3.63;2.57;;;;;;;11.19;nan;99635.97;4989800;28;20215;-82
2023/12/29 07:13:17;;;;;;;2.30;2.10;;;;;;;11.22;nan;99642.84;4970012;28;20202;-81
2023/12/29 07:15:43;;;;;;;3.20;2.07;;;;;;;11.22;nan;99632.31;4989780;28;20199;-79
2023/12/29 07:18:08;;;;;;;5.10;1.97;;;;;;;11.25;nan;99630.31;4989101;28;20227;-80
2023/12/29 07:20:33;;;;;;;2.50;1.80;;;;;;;11.28;nan;99643.25;4991426;28;20206;-81
2023/12/29 07:23:00;;;;;;;4.30;2.67;;;;;;;11.28;nan;99638.00;4989110;28;20619;-79
2023/12/29 07:25:25;;;;;;;3.17;1.73;;;;;;;11.35;nan;99642.88;4989349;28;20222;-82
2023/12/29 07:27:52;;;;;;;2.30;1.90;;;;;;;11.37;nan;99646.22;4990336;28;20222;-81
2023/12/29 07:30:18;;;;;;;1.85;1.60;;;;;;;11.38;nan;99638.25;4990946;28;20230;-80
2023/12/29 07:32:43;;;;;;;2.17;1.50;;;;;;;11.38;nan;99655.81;4990140;28;20203;-80
2023/12/29 07:35:09;;;;;;;2.10;1.90;;;;;;;11.38;nan;99646.13;4985816;28;20273;-81
2023/12/29 07:37:34;;;;;;;4.20;2.20;;;;;;;11.43;nan;99636.16;4986959;28;20448;-82
2023/12/29 07:40:00;;;;;;;2.40;2.17;;;;;;;11.47;nan;99642.03;4992506;23;20334;-78
2023/12/29 07:42:25;;;;;;;3.37;2.03;;;;;;;11.51;nan;99627.75;4965364;28;20195;-78
2023/12/29 07:44:51;;;;;;;2.73;2.07;;;;;;;11.56;nan;99630.06;4990889;28;20258;-77
2023/12/29 07:47:17;;;;;;;3.60;1.97;;;;;;;11.60;nan;99627.13;4994921;28;20195;-79
2023/12/29 07:49:42;;;;;;;3.50;2.47;;;;;;;11.63;nan;99624.28;4993014;28;21108;-78
2023/12/29 07:52:08;;;;;;;2.30;2.00;;;;;;;11.67;nan;99627.56;4991087;28;20218;-78
2023/12/29 07:54:34;;;;;;;3.60;2.05;;;;;;;11.73;nan;99630.59;4989716;28;20278;-78
2023/12/29 07:56:59;;;;;;;4.57;2.00;;;;;;;11.74;nan;99624.38;4989905;28;20707;-78
2023/12/29 07:59:25;;;;;;;2.20;1.63;;;;;;;11.76;nan;99642.72;4985666;28;20451;-78
2023/12/29 08:01:50;;;;;;;1.80;1.70;;;;;;;11.81;nan;99637.16;4987035;28;20553;-78
2023/12/29 08:04:16;;;;;;;1.80;1.70;;;;;;;11.83;nan;99644.00;4986094;28;20227;-77
2023/12/29 08:06:41;;;;;;;2.50;1.73;;;;;;;11.86;nan;99637.72;4988034;28;20227;-78
2023/12/29 08:09:07;;;;;;;2.00;1.80;;;;;;;11.88;nan;99641.94;4992409;28;20544;-78
2023/12/29 08:11:33;;;;;;;2.57;2.37;;;;;;;11.93;nan;99638.94;4993503;28;20195;-78
2023/12/29 08:13:58;;;;;;;2.53;1.50;;;;;;;11.95;nan;99642.34;4994416;28;20207;-78
2023/12/29 08:16:24;;;;;;;1.70;1.60;;;;;;;11.97;nan;99634.34;4991748;28;20655;-77
2023/12/29 08:18:50;;;;;;;2.90;1.63;;;;;;;11.95;nan;99642.34;4989881;28;20687;-78
2023/12/29 08:21:19;;;;;;;1.73;1.63;;;;;;;11.93;nan;99646.84;4991479;28;20576;-78
2023/12/29 08:23:48;;;;;;;2.15;1.58;;;;;;;11.95;nan;99652.84;4990250;28;20200;-78
2023/12/29 08:26:14;;;;;;;1.75;1.35;;;;;;;11.97;nan;99650.97;4984133;28;20522;-77
2023/12/29 08:28:40;;;;;;;2.00;1.80;;;;;;;11.99;nan;99654.34;4986469;28;20520;-77
2023/12/29 08:31:07;;;;;;;2.10;1.30;;;;;;;12.03;nan;99654.97;4981678;28;20663;-77
2023/12/29 08:33:33;;;;;;;1.95;1.60;;;;;;;12.04;nan;99659.28;4982502;28;20200;-77
2023/12/29 08:36:00;;;;;;;1.60;1.40;;;;;;;12.05;nan;99663.63;4986200;28;20221;-77
2023/12/29 08:38:26;;;;;;;1.88;1.52;;;;;;;12.07;nan;99661.69;4993494;28;20459;-77
2023/12/29 08:40:52;;;;;;;2.80;2.22;;;;;;;12.09;nan;99671.16;4996551;28;20699;-77
2023/12/29 08:43:21;;;;;;;1.40;1.17;;;;;;;12.12;nan;99655.19;4998211;28;20195;-77
2023/12/29 08:45:47;;;;;;;2.50;1.80;;;;;;;12.14;nan;99658.53;4997140;28;20223;-77
2023/12/29 08:48:13;;;;;;;2.25;1.63;;;;;;;12.18;nan;99675.00;4997364;28;20563;-77
2023/12/29 08:50:38;;;;;;;1.20;1.10;;;;;;;12.22;nan;99671.19;4996930;28;20299;-77
2023/12/29 08:53:03;;;;;;;2.07;1.30;;;;;;;12.26;nan;99658.63;4997287;28;20486;-77
2023/12/29 08:55:29;;;;;;;2.00;1.50;;;;;;;12.31;nan;99669.69;4998543;28;20203;-77
2023/12/29 08:57:54;;;;;;;1.40;1.30;;;;;;;12.35;nan;99676.44;4997671;28;20195;-78
2023/12/29 09:00:20;;;;;;;2.70;2.17;;;;;;;12.37;nan;99658.75;4996760;28;20191;-77
2023/12/29 09:02:46;;;;;;;1.90;1.70;;;;;;;12.37;nan;99664.00;4997434;28;20642;-77
2023/12/29 09:08:05;;;;;;;2.22;1.80;;;;;;;12.46;nan;99665.97;5867567;23;20243;-78
2023/12/29 09:10:30;;;;;;;2.73;1.60;;;;;;;12.51;nan;99660.41;4977507;28;20216;-77
2023/12/29 09:12:56;;;;;;;1.30;1.20;;;;;;;12.57;nan;99649.41;4977387;28;20203;-78
2023/12/29 09:15:21;;;;;;;3.07;1.37;;;;;;;12.61;nan;99653.53;4977259;28;20196;-80
2023/12/29 09:17:47;;;;;;;1.90;1.77;;;;;;;12.70;nan;99659.94;4978866;28;20755;-79
2023/12/29 09:20:14;;;;;;;3.63;1.70;;;;;;;12.81;nan;99666.09;4976974;28;20756;-78
2023/12/29 09:22:40;;;;;;;3.05;1.60;;;;;;;12.92;nan;99664.50;4977098;28;20245;-79
2023/12/29 09:25:05;;;;;;;2.67;1.80;;;;;;;12.96;nan;99655.41;4976265;28;20208;-79
2023/12/29 09:27:31;;;;;;;2.03;1.50;;;;;;;13.00;nan;99660.34;4959409;28;20204;-79
2023/12/29 09:29:56;;;;;;;1.60;1.50;;;;;;;13.07;nan;99660.75;4977387;28;20455;-79
2023/12/29 09:32:22;;;;;;;2.23;1.97;;;;;;;13.06;nan;99651.13;4977505;28;20568;-80
2023/12/29 09:34:47;;;;;;;3.00;1.87;;;;;;;13.07;nan;99660.75;4977465;28;20775;-78
2023/12/29 09:37:13;;;;;;;1.43;1.20;;;;;;;13.11;nan;99656.09;4976414;28;20246;-79
2023/12/29 09:39:39;;;;;;;1.65;1.23;;;;;;;13.16;nan;99662.69;4977287;28;20215;-79
2023/12/29 09:42:06;;;;;;;2.80;1.67;;;;;;;13.19;nan;99659.84;4976202;28;20235;-78
2023/12/29 09:44:35;;;;;;;1.65;1.33;;;;;;;13.23;nan;99665.72;4976237;28;20212;-78
2023/12/29 09:47:02;;;;;;;2.25;1.40;;;;;;;13.17;nan;99663.53;4976719;28;20196;-78
2023/12/29 09:49:36;;;;;;;3.38;1.95;;;;;;;13.15;nan;99665.44;4976226;28;20247;-77
2023/12/29 09:52:03;;;;;;;1.75;1.08;;;;;;;13.12;nan;99670.94;4976755;28;20307;-79
2023/12/29 09:54:31;;;;;;;1.88;1.42;;;;;;;13.07;nan;99664.22;4975983;28;20188;-78
2023/12/29 09:56:57;;;;;;;1.42;1.33;;;;;;;13.00;nan;99662.97;4977313;28;20226;-78
2023/12/29 09:59:25;;;;;;;1.73;1.63;;;;;;;13.00;nan;99667.41;4975924;28;20336;-78
2023/12/29 10:01:52;;;;;;;1.40;1.30;;;;;;;12.95;nan;99665.09;4976731;28;20254;-78
2023/12/29 10:04:18;;;;;;;1.80;1.30;;;;;;;12.94;nan;99662.59;4976149;28;21249;-78
2023/12/29 10:06:46;;;;;;;1.60;1.37;;;;;;;12.91;nan;99657.53;4976110;28;20295;-78
2023/12/29 10:09:13;;;;;;;2.35;1.50;;;;;;;12.87;nan;99653.44;4976275;28;20235;-78
2023/12/29 10:11:42;;;;;;;1.60;1.50;;;;;;;12.86;nan;99665.78;4977396;28;20689;-78
2023/12/29 10:14:39;;;;;;;1.83;1.40;;;;;;;12.83;nan;99664.22;4976321;28;20549;-78
2023/12/29 10:17:42;;;;;;;2.42;1.70;;;;;;;12.87;nan;99672.72;4891281;28;21613;-79
2023/12/29 10:20:12;;;;;;;2.97;1.50;;;;;;;12.88;nan;99658.63;4976541;28;20200;-78
2023/12/29 10:22:51;;;;;;;2.85;1.73;;;;;;;12.92;nan;99657.44;4976370;28;20721;-78
2023/12/29 10:25:17;;;;;;;2.55;2.35;;;;;;;12.98;nan;99662.25;4976957;28;20212;-79
2023/12/29 10:27:43;;;;;;;1.80;1.40;;;;;;;13.01;nan;99659.38;4976294;28;20250;-79
2023/12/29 10:30:10;;;;;;;1.70;1.47;;;;;;;13.00;nan;99656.88;4975848;28;20215;-78
2023/12/29 10:32:36;;;;;;;2.03;1.73;;;;;;;13.00;nan;99652.44;4975094;28;20459;-78
2023/12/29 10:35:09;;;;;;;2.50;1.70;;;;;;;13.03;nan;99656.66;4977184;28;20258;-78
2023/12/29 10:37:35;;;;;;;3.28;1.60;;;;;;;13.06;nan;99646.69;4976530;28;20204;-78
2023/12/29 10:40:00;;;;;;;2.00;1.73;;;;;;;13.03;nan;99641.66;4977541;28;20249;-79
2023/12/29 10:42:26;;;;;;;2.87;2.20;;;;;;;13.04;nan;99642.50;4975083;28;20542;-78
2023/12/29 10:45:09;;;;;;;5.15;2.67;;;;;;;13.05;nan;99639.75;4975719;28;20222;-78
2023/12/29 10:47:35;;;;;;;2.63;1.98;;;;;;;13.06;nan;99632.69;4976608;28;20196;-78
2023/12/29 10:50:05;;;;;;;3.50;2.37;;;;;;;13.07;nan;99626.47;4975403;28;20308;-79
2023/12/29 10:52:32;;;;;;;2.67;2.45;;;;;;;13.08;nan;99622.88;4976071;28;20211;-78
2023/12/29 10:55:05;;;;;;;4.03;2.30;;;;;;;13.10;nan;99622.78;4976917;28;20191;-78
2023/12/29 10:57:32;;;;;;;2.88;2.38;;;;;;;13.13;nan;99619.91;4976741;28;20207;-78
2023/12/29 10:59:57;;;;;;;2.38;1.75;;;;;;;13.14;nan;99613.66;4977074;28;20208;-78
2023/12/29 11:02:23;;;;;;;3.30;2.43;;;;;;;13.15;nan;99613.56;4976621;28;20242;-79
2023/12/29 11:04:50;;;;;;;2.37;2.20;;;;;;;13.17;nan;99613.44;4977205;28;20219;-78
2023/12/29 11:07:30;;;;;;;2.92;2.08;;;;;;;13.16;nan;99609.13;4977901;28;20196;-78
2023/12/29 11:10:00;;;;;;;2.05;1.92;;;;;;;13.18;nan;99615.13;4975986;28;20231;-78
2023/12/29 11:12:26;;;;;;;3.00;1.90;;;;;;;13.26;nan;99604.88;4975331;28;20208;-78
2023/12/29 11:14:52;;;;;;;2.20;1.50;;;;;;;13.31;nan;99593.97;4978961;28;20204;-78
2023/12/29 11:17:19;;;;;;;2.28;2.08;;;;;;;13.35;nan;99604.19;4979301;28;20734;-78
2023/12/29 11:19:47;;;;;;;2.55;1.60;;;;;;;13.35;nan;99596.25;4980255;28;20208;-79
2023/12/29 11:22:14;;;;;;;2.25;2.05;;;;;;;13.38;nan;99597.84;4980209;28;20629;-78
2023/12/29 11:24:40;;;;;;;3.33;1.98;;;;;;;13.36;nan;99595.28;4978964;28;20207;-78
2023/12/29 11:27:07;;;;;;;3.50;2.10;;;;;;;13.40;nan;99594.13;4979101;28;20199;-78
2023/12/29 11:29:33;;;;;;;4.10;2.85;;;;;;;13.41;nan;99593.16;4979757;28;20208;-78
2023/12/29 11:32:03;;;;;;;2.53;1.70;;;;;;;13.42;nan;99584.31;4978960;28;20219;-79
2023/12/29 11:34:39;;;;;;;3.30;2.05;;;;;;;13.46;nan;99587.53;4971535;28;20231;-79
2023/12/29 11:37:21;;;;;;;2.88;2.40;;;;;;;13.48;nan;99567.16;4965628;28;20199;-78
2023/12/29 11:39:54;;;;;;;2.58;2.00;;;;;;;13.46;nan;99577.81;4970434;28;20815;-78
2023/12/29 11:42:33;;;;;;;2.05;1.80;;;;;;;13.49;nan;99577.59;4966944;28;20207;-78
2023/12/29 11:45:28;;;;;;;2.50;1.30;;;;;;;13.49;nan;99584.66;4969518;28;20472;-79
2023/12/29 11:47:55;;;;;;;1.58;1.30;;;;;;;13.50;nan;99574.00;4971038;28;20204;-78
2023/12/29 11:50:33;;;;;;;1.80;1.35;;;;;;;13.56;nan;99577.97;4966762;28;20204;-79
2023/12/29 11:52:59;;;;;;;2.15;1.55;;;;;;;13.58;nan;99578.66;4971925;28;20755;-79